sensor_id;sensor_type;location;lat;lon;timestamp;temperature;humidity
26378;DHT22;14078;50.974;6.786;2023-03-31T00:01:34;11.60;1.00
26378;DHT22;14078;50.974;6.786;2023-03-31T00:04:01;11.60;1.00
26378;DHT22;14078;50.974;6.786;2023-03-31T00:06:31;11.60;46.50
26378;DHT22;14078;50.974;6.786;2023-03-31T00:09:02;11.50;91.10
26378;DHT22;14078;50.974;6.786;2023-03-31T00:11:29;11.40;99.90
26378;DHT22;14078;50.974;6.786;2023-03-31T00:13:55;11.40;99.90
26378;DHT22;14078;50.974;6.786;2023-03-31T00:16:22;11.40;99.90
26378;DHT22;14078;50.974;6.786;2023-03-31T00:18:49;11.30;99.90
26378;DHT22;14078;50.974;6.786;2023-03-31T00:21:17;11.20;99.90
26378;DHT22;14078;50.974;6.786;2023-03-31T00:23:51;11.10;99.90
26378;DHT22;14078;50.974;6.786;2023-03-31T00:26:18;11.20;99.90
26378;DHT22;14078;50.974;6.786;2023-03-31T00:28:44;11.10;99.90
26378;DHT22;14078;50.974;6.786;2023-03-31T00:31:11;11.00;99.90
26378;DHT22;14078;50.974;6.786;2023-03-31T00:33:37;10.90;99.90
26378;DHT22;14078;50.974;6.786;2023-03-31T00:36:04;10.90;99.90
26378;DHT22;14078;50.974;6.786;2023-03-31T00:38:31;10.80;99.90
26378;DHT22;14078;50.974;6.786;2023-03-31T00:40:59;10.70;99.90
26378;DHT22;14078;50.974;6.786;2023-03-31T00:43:27;10.70;99.90
26378;DHT22;14078;50.974;6.786;2023-03-31T00:45:54;10.60;99.90
26378;DHT22;14078;50.974;6.786;2023-03-31T00:48:21;10.60;99.90
26378;DHT22;14078;50.974;6.786;2023-03-31T00:50:50;10.60;99.90
26378;DHT22;14078;50.974;6.786;2023-03-31T00:53:19;10.60;99.90
26378;DHT22;14078;50.974;6.786;2023-03-31T00:55:48;10.60;99.90
26378;DHT22;14078;50.974;6.786;2023-03-31T00:58:17;10.60;99.90
26378;DHT22;14078;50.974;6.786;2023-03-31T01:00:45;10.70;99.90
26378;DHT22;14078;50.974;6.786;2023-03-31T01:03:13;10.70;99.90
26378;DHT22;14078;50.974;6.786;2023-03-31T01:05:41;10.70;99.90
26378;DHT22;14078;50.974;6.786;2023-03-31T01:08:08;10.60;99.90
26378;DHT22;14078;50.974;6.786;2023-03-31T01:10:36;10.60;99.90
26378;DHT22;14078;50.974;6.786;2023-03-31T01:13:06;10.60;99.90
26378;DHT22;14078;50.974;6.786;2023-03-31T01:15:34;10.50;99.90
26378;DHT22;14078;50.974;6.786;2023-03-31T01:18:01;10.50;99.90
26378;DHT22;14078;50.974;6.786;2023-03-31T01:20:31;10.50;99.90
26378;DHT22;14078;50.974;6.786;2023-03-31T01:25:54;10.50;99.90
26378;DHT22;14078;50.974;6.786;2023-03-31T01:28:28;10.50;99.90
26378;DHT22;14078;50.974;6.786;2023-03-31T01:36:53;10.50;99.90
26378;DHT22;14078;50.974;6.786;2023-03-31T01:39:42;10.50;99.90
26378;DHT22;14078;50.974;6.786;2023-03-31T01:42:09;10.50;99.90
26378;DHT22;14078;50.974;6.786;2023-03-31T01:44:39;10.60;99.90
26378;DHT22;14078;50.974;6.786;2023-03-31T01:47:09;10.70;99.90
26378;DHT22;14078;50.974;6.786;2023-03-31T01:49:39;10.80;99.90
26378;DHT22;14078;50.974;6.786;2023-03-31T01:52:09;10.90;99.90
26378;DHT22;14078;50.974;6.786;2023-03-31T01:54:43;10.90;99.90
26378;DHT22;14078;50.974;6.786;2023-03-31T01:57:15;11.00;99.90
26378;DHT22;14078;50.974;6.786;2023-03-31T01:59:46;11.00;99.90
26378;DHT22;14078;50.974;6.786;2023-03-31T02:02:15;11.00;99.90
26378;DHT22;14078;50.974;6.786;2023-03-31T02:04:45;11.00;99.90
26378;DHT22;14078;50.974;6.786;2023-03-31T02:07:13;11.00;99.90
26378;DHT22;14078;50.974;6.786;2023-03-31T02:09:44;11.00;99.90
26378;DHT22;14078;50.974;6.786;2023-03-31T02:12:12;11.00;99.90
26378;DHT22;14078;50.974;6.786;2023-03-31T02:14:39;10.90;99.90
26378;DHT22;14078;50.974;6.786;2023-03-31T02:17:07;10.90;99.90
26378;DHT22;14078;50.974;6.786;2023-03-31T02:19:39;10.90;99.90
26378;DHT22;14078;50.974;6.786;2023-03-31T02:22:07;10.80;99.90
26378;DHT22;14078;50.974;6.786;2023-03-31T02:24:34;10.80;99.90
26378;DHT22;14078;50.974;6.786;2023-03-31T02:27:03;10.70;99.90
26378;DHT22;14078;50.974;6.786;2023-03-31T02:29:32;10.70;99.90
26378;DHT22;14078;50.974;6.786;2023-03-31T02:31:59;10.70;99.90
26378;DHT22;14078;50.974;6.786;2023-03-31T02:34:27;10.60;99.90
26378;DHT22;14078;50.974;6.786;2023-03-31T02:36:54;10.60;99.90
26378;DHT22;14078;50.974;6.786;2023-03-31T02:39:22;10.60;99.90
26378;DHT22;14078;50.974;6.786;2023-03-31T02:41:50;10.60;99.90
26378;DHT22;14078;50.974;6.786;2023-03-31T02:44:18;10.60;99.90
26378;DHT22;14078;50.974;6.786;2023-03-31T02:46:44;10.70;99.90
26378;DHT22;14078;50.974;6.786;2023-03-31T02:49:11;10.70;99.90
26378;DHT22;14078;50.974;6.786;2023-03-31T02:54:24;10.60;99.90
26378;DHT22;14078;50.974;6.786;2023-03-31T02:57:02;10.50;99.90
26378;DHT22;14078;50.974;6.786;2023-03-31T02:59:35;10.50;99.90
26378;DHT22;14078;50.974;6.786;2023-03-31T03:02:06;10.60;99.90
26378;DHT22;14078;50.974;6.786;2023-03-31T03:04:41;10.60;99.90
26378;DHT22;14078;50.974;6.786;2023-03-31T03:07:16;10.50;99.90
26378;DHT22;14078;50.974;6.786;2023-03-31T03:09:44;10.50;99.90
26378;DHT22;14078;50.974;6.786;2023-03-31T03:12:15;10.50;99.90
26378;DHT22;14078;50.974;6.786;2023-03-31T03:14:45;10.50;99.90
26378;DHT22;14078;50.974;6.786;2023-03-31T03:17:13;10.50;99.90
26378;DHT22;14078;50.974;6.786;2023-03-31T03:19:42;10.50;99.90
26378;DHT22;14078;50.974;6.786;2023-03-31T03:22:08;10.50;99.90
26378;DHT22;14078;50.974;6.786;2023-03-31T03:24:35;10.50;99.90
26378;DHT22;14078;50.974;6.786;2023-03-31T03:27:01;10.50;99.90
26378;DHT22;14078;50.974;6.786;2023-03-31T03:29:28;10.40;99.90
26378;DHT22;14078;50.974;6.786;2023-03-31T03:31:56;10.50;99.90
26378;DHT22;14078;50.974;6.786;2023-03-31T03:34:23;10.50;99.90
26378;DHT22;14078;50.974;6.786;2023-03-31T03:36:49;10.50;99.90
26378;DHT22;14078;50.974;6.786;2023-03-31T03:39:16;10.50;99.90
26378;DHT22;14078;50.974;6.786;2023-03-31T03:41:42;10.50;99.90
26378;DHT22;14078;50.974;6.786;2023-03-31T03:44:09;10.50;99.90
26378;DHT22;14078;50.974;6.786;2023-03-31T03:46:35;10.50;99.90
26378;DHT22;14078;50.974;6.786;2023-03-31T03:49:06;10.60;99.90
26378;DHT22;14078;50.974;6.786;2023-03-31T03:51:32;10.60;99.90
26378;DHT22;14078;50.974;6.786;2023-03-31T03:53:59;10.60;99.90
26378;DHT22;14078;50.974;6.786;2023-03-31T03:56:27;10.70;99.90
26378;DHT22;14078;50.974;6.786;2023-03-31T03:58:53;10.70;99.90
26378;DHT22;14078;50.974;6.786;2023-03-31T04:01:20;10.70;99.90
26378;DHT22;14078;50.974;6.786;2023-03-31T04:03:46;10.70;99.90
26378;DHT22;14078;50.974;6.786;2023-03-31T04:06:14;10.80;99.90
26378;DHT22;14078;50.974;6.786;2023-03-31T04:08:41;10.80;99.90
26378;DHT22;14078;50.974;6.786;2023-03-31T04:11:10;10.80;99.90
26378;DHT22;14078;50.974;6.786;2023-03-31T04:13:37;10.80;99.90
26378;DHT22;14078;50.974;6.786;2023-03-31T04:16:04;10.80;99.90
26378;DHT22;14078;50.974;6.786;2023-03-31T04:18:31;10.80;99.90
26378;DHT22;14078;50.974;6.786;2023-03-31T04:20:57;10.90;99.90
26378;DHT22;14078;50.974;6.786;2023-03-31T04:23:30;10.90;99.90
26378;DHT22;14078;50.974;6.786;2023-03-31T04:25:57;10.90;99.90
26378;DHT22;14078;50.974;6.786;2023-03-31T04:28:24;10.90;99.90
26378;DHT22;14078;50.974;6.786;2023-03-31T04:30:51;10.90;99.90
26378;DHT22;14078;50.974;6.786;2023-03-31T04:33:19;10.80;99.90
26378;DHT22;14078;50.974;6.786;2023-03-31T04:35:46;10.80;99.90
26378;DHT22;14078;50.974;6.786;2023-03-31T04:38:16;10.80;99.90
26378;DHT22;14078;50.974;6.786;2023-03-31T04:40:46;10.80;99.90
26378;DHT22;14078;50.974;6.786;2023-03-31T04:43:13;10.80;99.90
26378;DHT22;14078;50.974;6.786;2023-03-31T04:45:40;10.80;99.90
26378;DHT22;14078;50.974;6.786;2023-03-31T04:48:06;10.80;99.90
26378;DHT22;14078;50.974;6.786;2023-03-31T04:50:33;10.70;99.90
26378;DHT22;14078;50.974;6.786;2023-03-31T04:53:00;10.70;99.90
26378;DHT22;14078;50.974;6.786;2023-03-31T04:55:26;10.70;99.90
26378;DHT22;14078;50.974;6.786;2023-03-31T04:57:54;10.70;99.90
26378;DHT22;14078;50.974;6.786;2023-03-31T05:00:21;10.70;99.90
26378;DHT22;14078;50.974;6.786;2023-03-31T05:02:47;10.60;99.90
26378;DHT22;14078;50.974;6.786;2023-03-31T05:05:14;10.60;99.90
26378;DHT22;14078;50.974;6.786;2023-03-31T05:07:41;10.60;99.90
26378;DHT22;14078;50.974;6.786;2023-03-31T05:10:08;10.60;99.90
26378;DHT22;14078;50.974;6.786;2023-03-31T05:12:35;10.70;99.90
26378;DHT22;14078;50.974;6.786;2023-03-31T05:15:03;10.70;99.90
26378;DHT22;14078;50.974;6.786;2023-03-31T05:17:30;10.70;99.90
26378;DHT22;14078;50.974;6.786;2023-03-31T05:19:57;10.80;99.90
26378;DHT22;14078;50.974;6.786;2023-03-31T05:22:24;10.80;99.90
26378;DHT22;14078;50.974;6.786;2023-03-31T05:24:51;10.90;99.90
26378;DHT22;14078;50.974;6.786;2023-03-31T05:27:17;10.90;99.90
26378;DHT22;14078;50.974;6.786;2023-03-31T05:29:45;10.90;99.90
26378;DHT22;14078;50.974;6.786;2023-03-31T05:32:13;10.90;99.90
26378;DHT22;14078;50.974;6.786;2023-03-31T05:34:40;11.00;99.90
26378;DHT22;14078;50.974;6.786;2023-03-31T05:37:07;10.90;99.90
26378;DHT22;14078;50.974;6.786;2023-03-31T05:39:34;10.90;99.90
26378;DHT22;14078;50.974;6.786;2023-03-31T05:42:00;11.00;99.90
26378;DHT22;14078;50.974;6.786;2023-03-31T05:44:27;10.90;99.90
26378;DHT22;14078;50.974;6.786;2023-03-31T05:46:53;10.90;99.90
26378;DHT22;14078;50.974;6.786;2023-03-31T05:49:21;10.90;99.90
26378;DHT22;14078;50.974;6.786;2023-03-31T05:51:48;10.90;99.90
26378;DHT22;14078;50.974;6.786;2023-03-31T05:54:16;10.90;99.90
26378;DHT22;14078;50.974;6.786;2023-03-31T05:56:42;10.90;99.90
26378;DHT22;14078;50.974;6.786;2023-03-31T05:59:09;10.90;99.90
26378;DHT22;14078;50.974;6.786;2023-03-31T06:01:35;10.90;99.90
26378;DHT22;14078;50.974;6.786;2023-03-31T06:04:02;10.90;99.90
26378;DHT22;14078;50.974;6.786;2023-03-31T06:06:30;10.90;99.90
26378;DHT22;14078;50.974;6.786;2023-03-31T06:08:57;10.90;99.90
26378;DHT22;14078;50.974;6.786;2023-03-31T06:11:23;10.90;99.90
26378;DHT22;14078;50.974;6.786;2023-03-31T06:13:50;11.00;99.90
26378;DHT22;14078;50.974;6.786;2023-03-31T06:16:17;11.00;99.90
26378;DHT22;14078;50.974;6.786;2023-03-31T06:18:44;11.10;99.90
26378;DHT22;14078;50.974;6.786;2023-03-31T06:21:11;11.20;99.90
26378;DHT22;14078;50.974;6.786;2023-03-31T06:23:47;11.20;99.90
26378;DHT22;14078;50.974;6.786;2023-03-31T06:26:14;11.20;99.90
26378;DHT22;14078;50.974;6.786;2023-03-31T06:28:41;11.20;99.90
26378;DHT22;14078;50.974;6.786;2023-03-31T06:31:08;11.20;99.90
26378;DHT22;14078;50.974;6.786;2023-03-31T06:33:36;11.10;99.90
26378;DHT22;14078;50.974;6.786;2023-03-31T06:36:04;11.00;99.90
26378;DHT22;14078;50.974;6.786;2023-03-31T06:38:31;11.00;99.90
26378;DHT22;14078;50.974;6.786;2023-03-31T06:40:59;10.90;99.90
26378;DHT22;14078;50.974;6.786;2023-03-31T06:43:25;10.90;99.90
26378;DHT22;14078;50.974;6.786;2023-03-31T06:45:52;10.90;99.90
26378;DHT22;14078;50.974;6.786;2023-03-31T06:48:18;10.90;99.90
26378;DHT22;14078;50.974;6.786;2023-03-31T06:50:45;10.90;99.90
26378;DHT22;14078;50.974;6.786;2023-03-31T06:53:12;10.90;99.90
26378;DHT22;14078;50.974;6.786;2023-03-31T06:55:38;10.90;99.90
26378;DHT22;14078;50.974;6.786;2023-03-31T06:58:06;11.00;99.90
26378;DHT22;14078;50.974;6.786;2023-03-31T07:00:33;11.00;99.90
26378;DHT22;14078;50.974;6.786;2023-03-31T07:03:00;11.00;99.90
26378;DHT22;14078;50.974;6.786;2023-03-31T07:05:28;11.00;99.90
26378;DHT22;14078;50.974;6.786;2023-03-31T07:07:55;11.10;99.90
26378;DHT22;14078;50.974;6.786;2023-03-31T07:10:22;11.30;99.90
26378;DHT22;14078;50.974;6.786;2023-03-31T07:12:49;11.30;99.90
26378;DHT22;14078;50.974;6.786;2023-03-31T07:15:17;11.40;99.90
26378;DHT22;14078;50.974;6.786;2023-03-31T07:17:43;11.40;99.90
26378;DHT22;14078;50.974;6.786;2023-03-31T07:20:10;11.40;99.90
26378;DHT22;14078;50.974;6.786;2023-03-31T07:22:39;11.60;99.90
26378;DHT22;14078;50.974;6.786;2023-03-31T07:25:06;11.60;99.90
26378;DHT22;14078;50.974;6.786;2023-03-31T07:27:32;11.70;99.90
26378;DHT22;14078;50.974;6.786;2023-03-31T07:29:59;11.90;99.90
26378;DHT22;14078;50.974;6.786;2023-03-31T07:32:27;11.90;99.90
26378;DHT22;14078;50.974;6.786;2023-03-31T07:34:53;12.00;99.90
26378;DHT22;14078;50.974;6.786;2023-03-31T07:37:20;12.20;99.90
26378;DHT22;14078;50.974;6.786;2023-03-31T07:39:46;12.30;99.90
26378;DHT22;14078;50.974;6.786;2023-03-31T07:42:13;12.40;99.90
26378;DHT22;14078;50.974;6.786;2023-03-31T07:44:39;12.30;99.90
26378;DHT22;14078;50.974;6.786;2023-03-31T07:47:06;12.30;99.90
26378;DHT22;14078;50.974;6.786;2023-03-31T07:49:34;12.30;99.90
26378;DHT22;14078;50.974;6.786;2023-03-31T07:52:01;12.40;99.90
26378;DHT22;14078;50.974;6.786;2023-03-31T07:54:27;12.50;99.90
26378;DHT22;14078;50.974;6.786;2023-03-31T07:56:54;12.60;99.90
26378;DHT22;14078;50.974;6.786;2023-03-31T07:59:21;12.70;99.90
26378;DHT22;14078;50.974;6.786;2023-03-31T08:01:47;12.90;99.90
26378;DHT22;14078;50.974;6.786;2023-03-31T08:04:14;13.00;99.90
26378;DHT22;14078;50.974;6.786;2023-03-31T08:06:42;13.10;99.90
26378;DHT22;14078;50.974;6.786;2023-03-31T08:09:08;13.10;99.90
26378;DHT22;14078;50.974;6.786;2023-03-31T08:11:35;13.10;99.90
26378;DHT22;14078;50.974;6.786;2023-03-31T08:14:01;13.00;99.90
26378;DHT22;14078;50.974;6.786;2023-03-31T08:16:28;13.00;99.90
26378;DHT22;14078;50.974;6.786;2023-03-31T08:18:54;12.90;99.90
26378;DHT22;14078;50.974;6.786;2023-03-31T08:21:21;13.00;99.90
26378;DHT22;14078;50.974;6.786;2023-03-31T08:23:49;13.00;99.90
26378;DHT22;14078;50.974;6.786;2023-03-31T08:26:18;13.10;99.90
26378;DHT22;14078;50.974;6.786;2023-03-31T08:28:46;13.20;97.40
26378;DHT22;14078;50.974;6.786;2023-03-31T08:31:13;13.40;93.50
26378;DHT22;14078;50.974;6.786;2023-03-31T08:33:41;13.50;89.00
26378;DHT22;14078;50.974;6.786;2023-03-31T08:36:08;13.60;74.80
26378;DHT22;14078;50.974;6.786;2023-03-31T08:38:35;13.60;43.30
26378;DHT22;14078;50.974;6.786;2023-03-31T08:41:05;13.70;1.00
26378;DHT22;14078;50.974;6.786;2023-03-31T08:43:33;13.70;1.00
26378;DHT22;14078;50.974;6.786;2023-03-31T08:46:02;13.80;1.00
26378;DHT22;14078;50.974;6.786;2023-03-31T08:48:31;13.90;1.00
26378;DHT22;14078;50.974;6.786;2023-03-31T08:51:02;14.10;1.00
26378;DHT22;14078;50.974;6.786;2023-03-31T08:53:30;14.20;1.00
26378;DHT22;14078;50.974;6.786;2023-03-31T08:55:58;14.40;1.00
26378;DHT22;14078;50.974;6.786;2023-03-31T08:58:33;14.50;99.90
26378;DHT22;14078;50.974;6.786;2023-03-31T09:01:02;14.80;99.90
26378;DHT22;14078;50.974;6.786;2023-03-31T09:03:34;14.80;99.90
26378;DHT22;14078;50.974;6.786;2023-03-31T09:06:04;14.80;1.00
26378;DHT22;14078;50.974;6.786;2023-03-31T09:08:33;14.80;99.90
26378;DHT22;14078;50.974;6.786;2023-03-31T09:11:10;14.90;1.00
26378;DHT22;14078;50.974;6.786;2023-03-31T09:16:27;14.90;1.00
26378;DHT22;14078;50.974;6.786;2023-03-31T09:18:57;15.00;99.90
26378;DHT22;14078;50.974;6.786;2023-03-31T09:21:26;14.80;99.90
26378;DHT22;14078;50.974;6.786;2023-03-31T09:23:54;14.90;1.00
26378;DHT22;14078;50.974;6.786;2023-03-31T09:26:24;15.00;1.00
26378;DHT22;14078;50.974;6.786;2023-03-31T09:28:52;14.90;99.90
26378;DHT22;14078;50.974;6.786;2023-03-31T09:31:20;14.70;99.90
26378;DHT22;14078;50.974;6.786;2023-03-31T09:33:49;14.60;99.90
26378;DHT22;14078;50.974;6.786;2023-03-31T09:36:19;14.60;1.00
26378;DHT22;14078;50.974;6.786;2023-03-31T09:38:46;14.70;1.00
26378;DHT22;14078;50.974;6.786;2023-03-31T09:41:14;14.70;1.00
26378;DHT22;14078;50.974;6.786;2023-03-31T09:43:41;14.90;1.00
26378;DHT22;14078;50.974;6.786;2023-03-31T09:46:14;15.00;99.90
26378;DHT22;14078;50.974;6.786;2023-03-31T09:53:37;15.20;99.90
26378;DHT22;14078;50.974;6.786;2023-03-31T09:56:05;15.30;99.90
26378;DHT22;14078;50.974;6.786;2023-03-31T09:58:36;15.20;99.90
26378;DHT22;14078;50.974;6.786;2023-03-31T10:01:05;15.20;99.90
26378;DHT22;14078;50.974;6.786;2023-03-31T10:03:40;15.20;99.90
26378;DHT22;14078;50.974;6.786;2023-03-31T10:06:13;15.20;99.90
26378;DHT22;14078;50.974;6.786;2023-03-31T10:08:41;15.20;99.90
26378;DHT22;14078;50.974;6.786;2023-03-31T10:11:09;15.20;99.90
26378;DHT22;14078;50.974;6.786;2023-03-31T10:13:46;15.30;99.90
26378;DHT22;14078;50.974;6.786;2023-03-31T10:16:13;15.30;99.90
26378;DHT22;14078;50.974;6.786;2023-03-31T10:18:45;15.30;99.90
26378;DHT22;14078;50.974;6.786;2023-03-31T10:21:27;15.20;99.90
26378;DHT22;14078;50.974;6.786;2023-03-31T10:24:02;15.20;99.90
26378;DHT22;14078;50.974;6.786;2023-03-31T10:26:33;15.40;99.90
26378;DHT22;14078;50.974;6.786;2023-03-31T10:28:59;15.50;99.90
26378;DHT22;14078;50.974;6.786;2023-03-31T10:31:32;15.50;99.90
26378;DHT22;14078;50.974;6.786;2023-03-31T10:34:00;15.60;99.90
26378;DHT22;14078;50.974;6.786;2023-03-31T10:36:30;15.70;99.90
26378;DHT22;14078;50.974;6.786;2023-03-31T10:38:57;15.80;99.90
26378;DHT22;14078;50.974;6.786;2023-03-31T10:41:25;15.60;99.90
26378;DHT22;14078;50.974;6.786;2023-03-31T10:43:53;15.60;99.90
26378;DHT22;14078;50.974;6.786;2023-03-31T10:46:20;15.20;99.90
26378;DHT22;14078;50.974;6.786;2023-03-31T10:49:08;15.00;99.90
26378;DHT22;14078;50.974;6.786;2023-03-31T10:51:40;14.60;52.50
26378;DHT22;14078;50.974;6.786;2023-03-31T10:54:13;14.70;1.00
26378;DHT22;14078;50.974;6.786;2023-03-31T10:56:42;14.90;1.00
26378;DHT22;14078;50.974;6.786;2023-03-31T10:59:12;14.90;1.00
26378;DHT22;14078;50.974;6.786;2023-03-31T11:01:42;14.80;1.00
26378;DHT22;14078;50.974;6.786;2023-03-31T11:07:01;14.50;99.90
26378;DHT22;14078;50.974;6.786;2023-03-31T11:09:32;13.00;1.00
26378;DHT22;14078;50.974;6.786;2023-03-31T11:12:04;11.90;99.90
26378;DHT22;14078;50.974;6.786;2023-03-31T11:14:35;11.30;99.90
26378;DHT22;14078;50.974;6.786;2023-03-31T11:17:06;11.00;99.90
26378;DHT22;14078;50.974;6.786;2023-03-31T11:19:38;11.00;99.90
26378;DHT22;14078;50.974;6.786;2023-03-31T11:22:10;10.90;99.90
26378;DHT22;14078;50.974;6.786;2023-03-31T11:24:43;11.00;99.90
26378;DHT22;14078;50.974;6.786;2023-03-31T11:27:19;11.30;99.90
26378;DHT22;14078;50.974;6.786;2023-03-31T11:29:52;11.60;99.90
26378;DHT22;14078;50.974;6.786;2023-03-31T11:32:29;11.90;99.90
26378;DHT22;14078;50.974;6.786;2023-03-31T11:35:02;12.30;99.90
26378;DHT22;14078;50.974;6.786;2023-03-31T11:37:41;12.50;99.90
26378;DHT22;14078;50.974;6.786;2023-03-31T11:40:25;12.80;99.90
26378;DHT22;14078;50.974;6.786;2023-03-31T11:57:43;14.10;94.30
26378;DHT22;14078;50.974;6.786;2023-03-31T12:00:11;14.30;1.00
26378;DHT22;14078;50.974;6.786;2023-03-31T12:02:43;14.50;1.00
26378;DHT22;14078;50.974;6.786;2023-03-31T12:05:11;14.50;1.00
26378;DHT22;14078;50.974;6.786;2023-03-31T12:07:40;14.50;1.00
26378;DHT22;14078;50.974;6.786;2023-03-31T12:10:11;14.60;1.00
26378;DHT22;14078;50.974;6.786;2023-03-31T12:12:42;14.60;1.00
26378;DHT22;14078;50.974;6.786;2023-03-31T12:15:12;14.60;1.00
26378;DHT22;14078;50.974;6.786;2023-03-31T12:17:42;14.80;1.00
26378;DHT22;14078;50.974;6.786;2023-03-31T12:20:11;14.70;1.00
26378;DHT22;14078;50.974;6.786;2023-03-31T12:22:40;14.50;99.90
26378;DHT22;14078;50.974;6.786;2023-03-31T12:25:10;14.50;15.90
26378;DHT22;14078;50.974;6.786;2023-03-31T12:27:37;14.40;1.00
26378;DHT22;14078;50.974;6.786;2023-03-31T12:30:08;14.30;1.00
26378;DHT22;14078;50.974;6.786;2023-03-31T12:32:37;14.00;99.90
26378;DHT22;14078;50.974;6.786;2023-03-31T12:35:05;13.70;1.00
26378;DHT22;14078;50.974;6.786;2023-03-31T12:37:55;13.60;1.00
26378;DHT22;14078;50.974;6.786;2023-03-31T12:40:29;13.80;99.90
26378;DHT22;14078;50.974;6.786;2023-03-31T12:45:45;14.40;1.00
26378;DHT22;14078;50.974;6.786;2023-03-31T12:48:19;14.60;99.90
26378;DHT22;14078;50.974;6.786;2023-03-31T12:51:01;14.70;99.90
26378;DHT22;14078;50.974;6.786;2023-03-31T12:53:31;14.80;99.90
26378;DHT22;14078;50.974;6.786;2023-03-31T12:56:00;14.90;1.00
26378;DHT22;14078;50.974;6.786;2023-03-31T12:58:36;14.80;1.00
26378;DHT22;14078;50.974;6.786;2023-03-31T13:01:06;14.80;29.00
26378;DHT22;14078;50.974;6.786;2023-03-31T13:03:35;14.80;99.90
26378;DHT22;14078;50.974;6.786;2023-03-31T13:06:02;14.80;99.90
26378;DHT22;14078;50.974;6.786;2023-03-31T13:11:10;14.50;99.90
26378;DHT22;14078;50.974;6.786;2023-03-31T13:13:38;14.50;1.00
26378;DHT22;14078;50.974;6.786;2023-03-31T13:16:07;14.40;47.80
26378;DHT22;14078;50.974;6.786;2023-03-31T13:18:34;14.40;99.90
26378;DHT22;14078;50.974;6.786;2023-03-31T13:21:00;14.50;99.90
26378;DHT22;14078;50.974;6.786;2023-03-31T13:23:28;14.50;1.00
26378;DHT22;14078;50.974;6.786;2023-03-31T13:25:57;14.70;1.00
26378;DHT22;14078;50.974;6.786;2023-03-31T13:28:30;14.80;1.00
26378;DHT22;14078;50.974;6.786;2023-03-31T13:30:58;14.90;1.00
26378;DHT22;14078;50.974;6.786;2023-03-31T13:33:29;15.10;1.00
26378;DHT22;14078;50.974;6.786;2023-03-31T13:36:03;15.30;99.90
26378;DHT22;14078;50.974;6.786;2023-03-31T13:38:38;15.30;99.90
26378;DHT22;14078;50.974;6.786;2023-03-31T13:41:12;15.50;99.90
26378;DHT22;14078;50.974;6.786;2023-03-31T13:43:47;15.40;99.90
26378;DHT22;14078;50.974;6.786;2023-03-31T13:46:26;15.40;99.90
26378;DHT22;14078;50.974;6.786;2023-03-31T13:48:59;15.50;99.90
26378;DHT22;14078;50.974;6.786;2023-03-31T13:51:31;15.70;99.90
26378;DHT22;14078;50.974;6.786;2023-03-31T13:54:11;15.80;99.90
26378;DHT22;14078;50.974;6.786;2023-03-31T13:56:50;15.80;99.90
26378;DHT22;14078;50.974;6.786;2023-03-31T13:59:20;16.00;99.90
26378;DHT22;14078;50.974;6.786;2023-03-31T14:02:04;16.10;99.90
26378;DHT22;14078;50.974;6.786;2023-03-31T14:04:45;16.20;99.90
26378;DHT22;14078;50.974;6.786;2023-03-31T14:07:15;16.00;99.90
26378;DHT22;14078;50.974;6.786;2023-03-31T14:09:44;15.90;99.90
26378;DHT22;14078;50.974;6.786;2023-03-31T14:12:18;15.90;99.90
26378;DHT22;14078;50.974;6.786;2023-03-31T14:14:44;15.80;99.90
26378;DHT22;14078;50.974;6.786;2023-03-31T14:17:11;15.70;99.90
26378;DHT22;14078;50.974;6.786;2023-03-31T14:19:47;15.70;99.90
26378;DHT22;14078;50.974;6.786;2023-03-31T14:22:18;15.60;99.90
26378;DHT22;14078;50.974;6.786;2023-03-31T14:24:51;15.60;99.90
26378;DHT22;14078;50.974;6.786;2023-03-31T14:27:23;15.60;99.90
26378;DHT22;14078;50.974;6.786;2023-03-31T14:29:57;15.60;99.90
26378;DHT22;14078;50.974;6.786;2023-03-31T14:32:31;15.50;99.90
26378;DHT22;14078;50.974;6.786;2023-03-31T14:35:10;15.60;99.90
26378;DHT22;14078;50.974;6.786;2023-03-31T14:37:39;15.50;99.90
26378;DHT22;14078;50.974;6.786;2023-03-31T14:40:09;15.40;23.50
26378;DHT22;14078;50.974;6.786;2023-03-31T14:42:38;15.30;24.10
26378;DHT22;14078;50.974;6.786;2023-03-31T14:45:06;15.30;21.00
26378;DHT22;14078;50.974;6.786;2023-03-31T14:47:40;15.40;21.80
26378;DHT22;14078;50.974;6.786;2023-03-31T14:50:10;15.40;7.60
26378;DHT22;14078;50.974;6.786;2023-03-31T14:52:38;15.40;7.60
26378;DHT22;14078;50.974;6.786;2023-03-31T14:55:05;15.30;20.00
26378;DHT22;14078;50.974;6.786;2023-03-31T14:57:32;15.30;11.70
26378;DHT22;14078;50.974;6.786;2023-03-31T15:00:00;15.20;14.90
26378;DHT22;14078;50.974;6.786;2023-03-31T15:02:30;15.20;14.00
26378;DHT22;14078;50.974;6.786;2023-03-31T15:04:58;15.20;99.90
26378;DHT22;14078;50.974;6.786;2023-03-31T15:07:28;15.20;99.90
26378;DHT22;14078;50.974;6.786;2023-03-31T15:09:54;15.20;99.90
26378;DHT22;14078;50.974;6.786;2023-03-31T15:12:21;15.00;99.90
26378;DHT22;14078;50.974;6.786;2023-03-31T15:14:48;15.00;99.90
26378;DHT22;14078;50.974;6.786;2023-03-31T15:17:17;14.90;99.90
26378;DHT22;14078;50.974;6.786;2023-03-31T15:19:44;14.80;99.90
26378;DHT22;14078;50.974;6.786;2023-03-31T15:22:11;14.60;1.00
26378;DHT22;14078;50.974;6.786;2023-03-31T15:24:41;14.30;99.90
26378;DHT22;14078;50.974;6.786;2023-03-31T15:27:09;13.90;99.90
26378;DHT22;14078;50.974;6.786;2023-03-31T15:29:39;13.60;1.00
26378;DHT22;14078;50.974;6.786;2023-03-31T15:32:10;13.40;1.00
26378;DHT22;14078;50.974;6.786;2023-03-31T15:34:38;12.90;87.60
26378;DHT22;14078;50.974;6.786;2023-03-31T15:37:08;12.60;99.90
26378;DHT22;14078;50.974;6.786;2023-03-31T15:39:35;12.30;99.90
26378;DHT22;14078;50.974;6.786;2023-03-31T15:42:04;12.10;99.90
26378;DHT22;14078;50.974;6.786;2023-03-31T15:44:35;12.10;99.90
26378;DHT22;14078;50.974;6.786;2023-03-31T15:47:05;12.00;99.90
26378;DHT22;14078;50.974;6.786;2023-03-31T15:49:32;12.00;99.90
26378;DHT22;14078;50.974;6.786;2023-03-31T15:51:59;12.00;99.90
26378;DHT22;14078;50.974;6.786;2023-03-31T15:54:28;12.00;99.90
26378;DHT22;14078;50.974;6.786;2023-03-31T15:56:55;12.10;99.90
26378;DHT22;14078;50.974;6.786;2023-03-31T15:59:26;12.30;99.90
26378;DHT22;14078;50.974;6.786;2023-03-31T16:01:53;12.30;99.90
26378;DHT22;14078;50.974;6.786;2023-03-31T16:04:20;12.40;87.10
26378;DHT22;14078;50.974;6.786;2023-03-31T16:06:48;12.40;68.20
26378;DHT22;14078;50.974;6.786;2023-03-31T16:09:18;12.50;88.40
26378;DHT22;14078;50.974;6.786;2023-03-31T16:11:47;12.60;1.00
26378;DHT22;14078;50.974;6.786;2023-03-31T16:14:16;12.60;1.00
26378;DHT22;14078;50.974;6.786;2023-03-31T16:16:46;12.60;1.00
26378;DHT22;14078;50.974;6.786;2023-03-31T16:19:13;12.50;1.00
26378;DHT22;14078;50.974;6.786;2023-03-31T16:21:40;12.40;1.00
26378;DHT22;14078;50.974;6.786;2023-03-31T16:24:08;12.30;30.60
26378;DHT22;14078;50.974;6.786;2023-03-31T16:26:35;12.30;45.80